sensor_id;sensor_type;location;lat;lon;timestamp;P1;durP1;ratioP1;P2;durP2;ratioP2
48993;SDS011;34804;49.214;12.276;2024-02-26T00:02:07;6.47;;;2.92;;
48993;SDS011;34804;49.214;12.276;2024-02-26T00:04:34;6.18;;;3.25;;
48993;SDS011;34804;49.214;12.276;2024-02-26T00:07:01;6.90;;;3.65;;
48993;SDS011;34804;49.214;12.276;2024-02-26T00:09:28;7.75;;;3.70;;
48993;SDS011;34804;49.214;12.276;2024-02-26T00:11:56;6.43;;;3.00;;
48993;SDS011;34804;49.214;12.276;2024-02-26T00:14:24;5.65;;;2.55;;
48993;SDS011;34804;49.214;12.276;2024-02-26T00:16:51;6.90;;;2.85;;
48993;SDS011;34804;49.214;12.276;2024-02-26T00:19:18;5.95;;;2.83;;
48993;SDS011;34804;49.214;12.276;2024-02-26T00:21:45;5.00;;;2.40;;
48993;SDS011;34804;49.214;12.276;2024-02-26T00:24:12;7.15;;;2.78;;
48993;SDS011;34804;49.214;12.276;2024-02-26T00:26:38;6.30;;;2.70;;
48993;SDS011;34804;49.214;12.276;2024-02-26T00:29:05;6.03;;;2.92;;
48993;SDS011;34804;49.214;12.276;2024-02-26T00:31:32;6.30;;;2.95;;
48993;SDS011;34804;49.214;12.276;2024-02-26T00:34:00;6.65;;;3.70;;
48993;SDS011;34804;49.214;12.276;2024-02-26T00:36:27;6.43;;;3.50;;
48993;SDS011;34804;49.214;12.276;2024-02-26T00:38:55;8.90;;;3.80;;
48993;SDS011;34804;49.214;12.276;2024-02-26T00:41:22;5.65;;;2.60;;
48993;SDS011;34804;49.214;12.276;2024-02-26T00:43:49;6.65;;;2.95;;
48993;SDS011;34804;49.214;12.276;2024-02-26T00:46:16;8.35;;;3.95;;
48993;SDS011;34804;49.214;12.276;2024-02-26T00:48:43;6.97;;;3.50;;
48993;SDS011;34804;49.214;12.276;2024-02-26T00:51:10;7.57;;;3.60;;
48993;SDS011;34804;49.214;12.276;2024-02-26T00:53:37;7.35;;;3.45;;
48993;SDS011;34804;49.214;12.276;2024-02-26T00:56:04;7.97;;;3.30;;
48993;SDS011;34804;49.214;12.276;2024-02-26T00:58:31;6.75;;;3.38;;
48993;SDS011;34804;49.214;12.276;2024-02-26T01:00:57;7.13;;;3.60;;
48993;SDS011;34804;49.214;12.276;2024-02-26T01:03:24;6.55;;;2.92;;
48993;SDS011;34804;49.214;12.276;2024-02-26T01:05:51;6.20;;;2.80;;
48993;SDS011;34804;49.214;12.276;2024-02-26T01:08:23;7.03;;;2.67;;
48993;SDS011;34804;49.214;12.276;2024-02-26T01:10:50;6.82;;;2.55;;
48993;SDS011;34804;49.214;12.276;2024-02-26T01:13:17;7.05;;;3.30;;
48993;SDS011;34804;49.214;12.276;2024-02-26T01:15:44;6.10;;;2.78;;
48993;SDS011;34804;49.214;12.276;2024-02-26T01:18:11;6.35;;;3.00;;
48993;SDS011;34804;49.214;12.276;2024-02-26T01:20:38;8.82;;;3.13;;
48993;SDS011;34804;49.214;12.276;2024-02-26T01:23:05;7.40;;;2.97;;
48993;SDS011;34804;49.214;12.276;2024-02-26T01:25:32;6.20;;;2.58;;
48993;SDS011;34804;49.214;12.276;2024-02-26T01:27:59;5.28;;;2.72;;
48993;SDS011;34804;49.214;12.276;2024-02-26T01:30:25;7.10;;;3.47;;
48993;SDS011;34804;49.214;12.276;2024-02-26T01:32:52;6.05;;;2.88;;
48993;SDS011;34804;49.214;12.276;2024-02-26T01:35:19;6.30;;;2.47;;
48993;SDS011;34804;49.214;12.276;2024-02-26T01:37:46;6.40;;;2.92;;
48993;SDS011;34804;49.214;12.276;2024-02-26T01:40:13;7.65;;;3.17;;
48993;SDS011;34804;49.214;12.276;2024-02-26T01:42:44;7.45;;;2.50;;
48993;SDS011;34804;49.214;12.276;2024-02-26T01:45:12;5.53;;;2.65;;
48993;SDS011;34804;49.214;12.276;2024-02-26T01:47:50;6.20;;;2.75;;
48993;SDS011;34804;49.214;12.276;2024-02-26T01:50:18;5.82;;;2.97;;
48993;SDS011;34804;49.214;12.276;2024-02-26T01:52:46;5.32;;;2.63;;
48993;SDS011;34804;49.214;12.276;2024-02-26T01:55:14;8.10;;;3.38;;
48993;SDS011;34804;49.214;12.276;2024-02-26T01:57:43;6.70;;;3.08;;
48993;SDS011;34804;49.214;12.276;2024-02-26T02:00:11;6.72;;;2.72;;
48993;SDS011;34804;49.214;12.276;2024-02-26T02:02:40;7.80;;;3.10;;
48993;SDS011;34804;49.214;12.276;2024-02-26T02:05:08;6.13;;;3.22;;
48993;SDS011;34804;49.214;12.276;2024-02-26T02:07:36;6.65;;;3.28;;
48993;SDS011;34804;49.214;12.276;2024-02-26T02:10:03;6.55;;;2.58;;
48993;SDS011;34804;49.214;12.276;2024-02-26T02:12:32;6.45;;;3.17;;
48993;SDS011;34804;49.214;12.276;2024-02-26T02:15:00;7.25;;;3.40;;
48993;SDS011;34804;49.214;12.276;2024-02-26T02:17:28;8.60;;;3.10;;
48993;SDS011;34804;49.214;12.276;2024-02-26T02:19:55;6.00;;;3.30;;
48993;SDS011;34804;49.214;12.276;2024-02-26T02:22:22;6.30;;;2.88;;
48993;SDS011;34804;49.214;12.276;2024-02-26T02:24:51;8.52;;;3.58;;
48993;SDS011;34804;49.214;12.276;2024-02-26T02:27:19;8.73;;;3.78;;
48993;SDS011;34804;49.214;12.276;2024-02-26T02:29:46;6.63;;;3.50;;
48993;SDS011;34804;49.214;12.276;2024-02-26T02:32:14;8.88;;;3.67;;
48993;SDS011;34804;49.214;12.276;2024-02-26T02:34:43;6.40;;;3.45;;
48993;SDS011;34804;49.214;12.276;2024-02-26T02:37:10;7.18;;;3.50;;
48993;SDS011;34804;49.214;12.276;2024-02-26T02:39:37;6.82;;;3.13;;
48993;SDS011;34804;49.214;12.276;2024-02-26T02:42:04;6.43;;;3.17;;
48993;SDS011;34804;49.214;12.276;2024-02-26T02:44:31;6.30;;;2.90;;
48993;SDS011;34804;49.214;12.276;2024-02-26T02:46:58;8.27;;;3.25;;
48993;SDS011;34804;49.214;12.276;2024-02-26T02:49:25;8.70;;;3.85;;
48993;SDS011;34804;49.214;12.276;2024-02-26T02:51:53;7.07;;;3.38;;
48993;SDS011;34804;49.214;12.276;2024-02-26T02:54:20;7.75;;;3.58;;
48993;SDS011;34804;49.214;12.276;2024-02-26T02:56:47;6.38;;;3.42;;
48993;SDS011;34804;49.214;12.276;2024-02-26T02:59:14;7.25;;;3.70;;
48993;SDS011;34804;49.214;12.276;2024-02-26T03:01:41;6.82;;;3.05;;
48993;SDS011;34804;49.214;12.276;2024-02-26T03:04:08;7.30;;;3.42;;
48993;SDS011;34804;49.214;12.276;2024-02-26T03:06:35;8.38;;;3.60;;
48993;SDS011;34804;49.214;12.276;2024-02-26T03:09:02;6.05;;;3.17;;
48993;SDS011;34804;49.214;12.276;2024-02-26T03:11:29;8.27;;;3.17;;
48993;SDS011;34804;49.214;12.276;2024-02-26T03:13:55;8.65;;;3.17;;
48993;SDS011;34804;49.214;12.276;2024-02-26T03:16:22;7.03;;;3.00;;
48993;SDS011;34804;49.214;12.276;2024-02-26T03:18:49;7.40;;;3.47;;
48993;SDS011;34804;49.214;12.276;2024-02-26T03:21:16;6.60;;;3.10;;
48993;SDS011;34804;49.214;12.276;2024-02-26T03:23:43;7.35;;;3.10;;
48993;SDS011;34804;49.214;12.276;2024-02-26T03:26:10;5.90;;;2.90;;
48993;SDS011;34804;49.214;12.276;2024-02-26T03:28:40;7.78;;;3.45;;
48993;SDS011;34804;49.214;12.276;2024-02-26T03:31:07;10.23;;;3.50;;
48993;SDS011;34804;49.214;12.276;2024-02-26T03:33:34;6.68;;;2.92;;
48993;SDS011;34804;49.214;12.276;2024-02-26T03:36:01;8.85;;;3.30;;
48993;SDS011;34804;49.214;12.276;2024-02-26T03:38:29;6.32;;;3.00;;
48993;SDS011;34804;49.214;12.276;2024-02-26T03:40:56;6.78;;;3.40;;
48993;SDS011;34804;49.214;12.276;2024-02-26T03:43:23;6.07;;;3.10;;
48993;SDS011;34804;49.214;12.276;2024-02-26T03:45:50;6.82;;;3.47;;
48993;SDS011;34804;49.214;12.276;2024-02-26T03:48:16;7.43;;;3.10;;
48993;SDS011;34804;49.214;12.276;2024-02-26T03:50:43;9.52;;;3.55;;
48993;SDS011;34804;49.214;12.276;2024-02-26T03:53:10;7.35;;;3.30;;
48993;SDS011;34804;49.214;12.276;2024-02-26T03:55:40;7.13;;;3.30;;
48993;SDS011;34804;49.214;12.276;2024-02-26T03:58:08;6.55;;;3.30;;
48993;SDS011;34804;49.214;12.276;2024-02-26T04:00:35;7.55;;;3.45;;
48993;SDS011;34804;49.214;12.276;2024-02-26T04:03:03;7.25;;;3.88;;
48993;SDS011;34804;49.214;12.276;2024-02-26T04:05:30;9.20;;;3.40;;
48993;SDS011;34804;49.214;12.276;2024-02-26T04:07:57;7.28;;;3.42;;
48993;SDS011;34804;49.214;12.276;2024-02-26T04:10:24;6.70;;;3.22;;
48993;SDS011;34804;49.214;12.276;2024-02-26T04:12:51;7.18;;;3.45;;
48993;SDS011;34804;49.214;12.276;2024-02-26T04:15:18;7.57;;;3.08;;
48993;SDS011;34804;49.214;12.276;2024-02-26T04:17:45;8.38;;;3.65;;
48993;SDS011;34804;49.214;12.276;2024-02-26T04:20:15;6.65;;;3.35;;
48993;SDS011;34804;49.214;12.276;2024-02-26T04:22:43;8.57;;;3.03;;
48993;SDS011;34804;49.214;12.276;2024-02-26T04:25:10;6.57;;;3.45;;
48993;SDS011;34804;49.214;12.276;2024-02-26T04:27:37;9.10;;;4.20;;
48993;SDS011;34804;49.214;12.276;2024-02-26T04:30:05;7.75;;;4.03;;
48993;SDS011;34804;49.214;12.276;2024-02-26T04:32:33;8.55;;;4.45;;
48993;SDS011;34804;49.214;12.276;2024-02-26T04:35:01;11.57;;;6.10;;
48993;SDS011;34804;49.214;12.276;2024-02-26T04:37:29;11.70;;;5.82;;
48993;SDS011;34804;49.214;12.276;2024-02-26T04:40:01;10.98;;;5.47;;
48993;SDS011;34804;49.214;12.276;2024-02-26T04:42:29;10.85;;;4.97;;
48993;SDS011;34804;49.214;12.276;2024-02-26T04:44:56;10.18;;;5.22;;
48993;SDS011;34804;49.214;12.276;2024-02-26T04:47:23;8.98;;;4.63;;
48993;SDS011;34804;49.214;12.276;2024-02-26T04:49:50;8.30;;;4.47;;
48993;SDS011;34804;49.214;12.276;2024-02-26T04:52:18;12.48;;;5.55;;
48993;SDS011;34804;49.214;12.276;2024-02-26T04:54:45;10.13;;;4.75;;
48993;SDS011;34804;49.214;12.276;2024-02-26T04:57:12;12.98;;;5.25;;
48993;SDS011;34804;49.214;12.276;2024-02-26T04:59:39;8.40;;;4.85;;
48993;SDS011;34804;49.214;12.276;2024-02-26T05:02:07;11.57;;;5.00;;
48993;SDS011;34804;49.214;12.276;2024-02-26T05:04:34;10.48;;;5.22;;
48993;SDS011;34804;49.214;12.276;2024-02-26T05:07:01;11.52;;;4.65;;
48993;SDS011;34804;49.214;12.276;2024-02-26T05:09:28;7.75;;;4.35;;
48993;SDS011;34804;49.214;12.276;2024-02-26T05:11:55;8.95;;;4.63;;
48993;SDS011;34804;49.214;12.276;2024-02-26T05:14:22;9.52;;;4.60;;
48993;SDS011;34804;49.214;12.276;2024-02-26T05:16:49;9.25;;;4.78;;
48993;SDS011;34804;49.214;12.276;2024-02-26T05:19:16;12.30;;;4.68;;
48993;SDS011;34804;49.214;12.276;2024-02-26T05:21:43;10.23;;;4.55;;
48993;SDS011;34804;49.214;12.276;2024-02-26T05:24:10;9.93;;;4.95;;
48993;SDS011;34804;49.214;12.276;2024-02-26T05:26:37;10.43;;;4.63;;
48993;SDS011;34804;49.214;12.276;2024-02-26T05:29:04;9.02;;;4.88;;
48993;SDS011;34804;49.214;12.276;2024-02-26T05:31:31;10.07;;;4.63;;
48993;SDS011;34804;49.214;12.276;2024-02-26T05:33:57;10.55;;;4.80;;
48993;SDS011;34804;49.214;12.276;2024-02-26T05:36:25;12.38;;;4.78;;
48993;SDS011;34804;49.214;12.276;2024-02-26T05:38:52;8.57;;;4.50;;
48993;SDS011;34804;49.214;12.276;2024-02-26T05:41:19;7.93;;;4.30;;
48993;SDS011;34804;49.214;12.276;2024-02-26T05:43:49;8.43;;;4.38;;
48993;SDS011;34804;49.214;12.276;2024-02-26T05:46:17;9.52;;;4.38;;
48993;SDS011;34804;49.214;12.276;2024-02-26T05:48:47;8.80;;;4.60;;
48993;SDS011;34804;49.214;12.276;2024-02-26T05:51:15;8.25;;;4.43;;
48993;SDS011;34804;49.214;12.276;2024-02-26T05:53:42;8.98;;;4.68;;
48993;SDS011;34804;49.214;12.276;2024-02-26T05:56:09;11.32;;;4.50;;
48993;SDS011;34804;49.214;12.276;2024-02-26T05:58:36;8.20;;;3.92;;
48993;SDS011;34804;49.214;12.276;2024-02-26T06:01:03;7.60;;;4.22;;
48993;SDS011;34804;49.214;12.276;2024-02-26T06:03:30;21.40;;;9.57;;
48993;SDS011;34804;49.214;12.276;2024-02-26T06:05:57;29.05;;;12.27;;
48993;SDS011;34804;49.214;12.276;2024-02-26T06:08:24;85.07;;;27.63;;
48993;SDS011;34804;49.214;12.276;2024-02-26T06:10:51;129.82;;;38.47;;
48993;SDS011;34804;49.214;12.276;2024-02-26T06:13:18;32.85;;;13.32;;
48993;SDS011;34804;49.214;12.276;2024-02-26T06:15:45;56.90;;;22.25;;
48993;SDS011;34804;49.214;12.276;2024-02-26T06:18:11;53.33;;;21.08;;
48993;SDS011;34804;49.214;12.276;2024-02-26T06:20:38;36.33;;;14.80;;
48993;SDS011;34804;49.214;12.276;2024-02-26T06:23:05;26.95;;;12.93;;
48993;SDS011;34804;49.214;12.276;2024-02-26T06:25:33;27.30;;;12.73;;
48993;SDS011;34804;49.214;12.276;2024-02-26T06:28:00;23.10;;;11.63;;
48993;SDS011;34804;49.214;12.276;2024-02-26T06:30:27;29.75;;;12.93;;
48993;SDS011;34804;49.214;12.276;2024-02-26T06:32:54;28.40;;;13.30;;
48993;SDS011;34804;49.214;12.276;2024-02-26T06:35:21;26.40;;;12.70;;
48993;SDS011;34804;49.214;12.276;2024-02-26T06:37:48;32.03;;;14.55;;
48993;SDS011;34804;49.214;12.276;2024-02-26T06:40:17;29.67;;;14.35;;
48993;SDS011;34804;49.214;12.276;2024-02-26T06:42:43;27.25;;;13.25;;
48993;SDS011;34804;49.214;12.276;2024-02-26T06:45:14;24.45;;;12.10;;
48993;SDS011;34804;49.214;12.276;2024-02-26T06:47:41;27.83;;;12.68;;
48993;SDS011;34804;49.214;12.276;2024-02-26T06:50:11;27.27;;;13.10;;
48993;SDS011;34804;49.214;12.276;2024-02-26T06:52:38;31.85;;;12.77;;
48993;SDS011;34804;49.214;12.276;2024-02-26T06:55:05;30.20;;;14.20;;
48993;SDS011;34804;49.214;12.276;2024-02-26T06:57:34;27.42;;;14.23;;
48993;SDS011;34804;49.214;12.276;2024-02-26T07:00:01;30.85;;;13.88;;
48993;SDS011;34804;49.214;12.276;2024-02-26T07:02:31;28.60;;;13.93;;
48993;SDS011;34804;49.214;12.276;2024-02-26T07:04:58;26.02;;;13.45;;
48993;SDS011;34804;49.214;12.276;2024-02-26T07:07:25;25.88;;;12.82;;
48993;SDS011;34804;49.214;12.276;2024-02-26T07:09:52;28.08;;;12.40;;
48993;SDS011;34804;49.214;12.276;2024-02-26T07:12:19;27.27;;;13.93;;
48993;SDS011;34804;49.214;12.276;2024-02-26T07:14:48;25.10;;;11.95;;
48993;SDS011;34804;49.214;12.276;2024-02-26T07:17:16;26.35;;;12.48;;
48993;SDS011;34804;49.214;12.276;2024-02-26T07:19:43;30.75;;;15.15;;
48993;SDS011;34804;49.214;12.276;2024-02-26T07:22:09;32.50;;;14.85;;
48993;SDS011;34804;49.214;12.276;2024-02-26T07:24:36;25.90;;;12.90;;
48993;SDS011;34804;49.214;12.276;2024-02-26T07:27:03;35.40;;;15.10;;
48993;SDS011;34804;49.214;12.276;2024-02-26T07:29:30;26.33;;;12.88;;
48993;SDS011;34804;49.214;12.276;2024-02-26T07:31:57;25.73;;;12.52;;
48993;SDS011;34804;49.214;12.276;2024-02-26T07:34:24;31.52;;;14.32;;
48993;SDS011;34804;49.214;12.276;2024-02-26T07:36:56;31.08;;;15.43;;
48993;SDS011;34804;49.214;12.276;2024-02-26T07:39:23;26.33;;;13.07;;
48993;SDS011;34804;49.214;12.276;2024-02-26T07:41:50;28.02;;;12.95;;
48993;SDS011;34804;49.214;12.276;2024-02-26T07:44:19;24.35;;;12.25;;
48993;SDS011;34804;49.214;12.276;2024-02-26T07:46:47;24.70;;;11.05;;
48993;SDS011;34804;49.214;12.276;2024-02-26T07:49:13;23.23;;;12.32;;
48993;SDS011;34804;49.214;12.276;2024-02-26T07:51:41;26.20;;;11.93;;
48993;SDS011;34804;49.214;12.276;2024-02-26T07:54:08;19.95;;;11.30;;
48993;SDS011;34804;49.214;12.276;2024-02-26T07:56:35;23.13;;;11.77;;
48993;SDS011;34804;49.214;12.276;2024-02-26T07:59:02;19.73;;;10.23;;
48993;SDS011;34804;49.214;12.276;2024-02-26T08:01:28;25.42;;;10.77;;
48993;SDS011;34804;49.214;12.276;2024-02-26T08:03:55;21.98;;;11.32;;
48993;SDS011;34804;49.214;12.276;2024-02-26T08:06:23;21.17;;;10.57;;
48993;SDS011;34804;49.214;12.276;2024-02-26T08:08:51;20.13;;;11.20;;
48993;SDS011;34804;49.214;12.276;2024-02-26T08:11:18;20.33;;;10.75;;
48993;SDS011;34804;49.214;12.276;2024-02-26T08:13:44;20.08;;;9.63;;
48993;SDS011;34804;49.214;12.276;2024-02-26T08:16:11;20.35;;;10.30;;
48993;SDS011;34804;49.214;12.276;2024-02-26T08:18:38;19.38;;;10.57;;
48993;SDS011;34804;49.214;12.276;2024-02-26T08:21:06;21.25;;;10.48;;
48993;SDS011;34804;49.214;12.276;2024-02-26T08:23:33;18.48;;;9.85;;
48993;SDS011;34804;49.214;12.276;2024-02-26T08:26:00;19.95;;;9.93;;
48993;SDS011;34804;49.214;12.276;2024-02-26T08:28:27;18.48;;;8.88;;
48993;SDS011;34804;49.214;12.276;2024-02-26T08:30:54;18.25;;;9.02;;
48993;SDS011;34804;49.214;12.276;2024-02-26T08:33:20;17.63;;;9.52;;
48993;SDS011;34804;49.214;12.276;2024-02-26T08:35:48;21.58;;;9.55;;
48993;SDS011;34804;49.214;12.276;2024-02-26T08:38:15;19.05;;;10.25;;
48993;SDS011;34804;49.214;12.276;2024-02-26T08:40:42;17.48;;;8.90;;
48993;SDS011;34804;49.214;12.276;2024-02-26T08:43:09;16.88;;;9.20;;
48993;SDS011;34804;49.214;12.276;2024-02-26T08:45:36;15.60;;;8.55;;
48993;SDS011;34804;49.214;12.276;2024-02-26T08:48:03;18.98;;;9.75;;
48993;SDS011;34804;49.214;12.276;2024-02-26T08:50:30;16.30;;;8.80;;
48993;SDS011;34804;49.214;12.276;2024-02-26T08:52:57;18.15;;;8.70;;
48993;SDS011;34804;49.214;12.276;2024-02-26T08:55:45;17.67;;;8.27;;
48993;SDS011;34804;49.214;12.276;2024-02-26T08:58:11;15.90;;;8.63;;
48993;SDS011;34804;49.214;12.276;2024-02-26T09:00:38;16.02;;;7.82;;
48993;SDS011;34804;49.214;12.276;2024-02-26T09:03:05;14.48;;;7.75;;
48993;SDS011;34804;49.214;12.276;2024-02-26T09:05:32;16.85;;;8.77;;
48993;SDS011;34804;49.214;12.276;2024-02-26T09:07:59;15.15;;;8.27;;
48993;SDS011;34804;49.214;12.276;2024-02-26T09:10:26;19.85;;;9.98;;
48993;SDS011;34804;49.214;12.276;2024-02-26T09:12:53;15.02;;;8.30;;
48993;SDS011;34804;49.214;12.276;2024-02-26T09:15:21;14.85;;;7.97;;
48993;SDS011;34804;49.214;12.276;2024-02-26T09:17:48;14.93;;;7.40;;
48993;SDS011;34804;49.214;12.276;2024-02-26T09:20:16;14.63;;;7.75;;
48993;SDS011;34804;49.214;12.276;2024-02-26T09:22:46;16.95;;;8.68;;
48993;SDS011;34804;49.214;12.276;2024-02-26T09:25:13;16.15;;;8.68;;
48993;SDS011;34804;49.214;12.276;2024-02-26T09:27:43;16.63;;;8.70;;
48993;SDS011;34804;49.214;12.276;2024-02-26T09:30:11;16.75;;;8.85;;
48993;SDS011;34804;49.214;12.276;2024-02-26T09:32:39;14.85;;;7.70;;
48993;SDS011;34804;49.214;12.276;2024-02-26T09:35:06;16.02;;;8.35;;
48993;SDS011;34804;49.214;12.276;2024-02-26T09:37:33;14.65;;;8.30;;
48993;SDS011;34804;49.214;12.276;2024-02-26T09:40:03;15.85;;;7.97;;
48993;SDS011;34804;49.214;12.276;2024-02-26T09:42:32;14.80;;;7.97;;
48993;SDS011;34804;49.214;12.276;2024-02-26T09:45:00;16.10;;;8.23;;
48993;SDS011;34804;49.214;12.276;2024-02-26T09:47:35;18.67;;;8.60;;
48993;SDS011;34804;49.214;12.276;2024-02-26T09:50:03;14.85;;;7.90;;
48993;SDS011;34804;49.214;12.276;2024-02-26T09:52:34;17.15;;;8.32;;
48993;SDS011;34804;49.214;12.276;2024-02-26T09:55:04;15.50;;;8.38;;
48993;SDS011;34804;49.214;12.276;2024-02-26T09:57:31;14.75;;;8.10;;
48993;SDS011;34804;49.214;12.276;2024-02-26T09:59:59;14.63;;;7.75;;
48993;SDS011;34804;49.214;12.276;2024-02-26T10:02:30;15.68;;;7.93;;
48993;SDS011;34804;49.214;12.276;2024-02-26T10:04:59;13.52;;;7.55;;
48993;SDS011;34804;49.214;12.276;2024-02-26T10:07:31;13.10;;;7.30;;
48993;SDS011;34804;49.214;12.276;2024-02-26T10:09:58;13.25;;;7.05;;
48993;SDS011;34804;49.214;12.276;2024-02-26T10:12:25;12.02;;;6.75;;
48993;SDS011;34804;49.214;12.276;2024-02-26T10:14:54;12.73;;;6.40;;
48993;SDS011;34804;49.214;12.276;2024-02-26T10:17:21;11.40;;;6.57;;
48993;SDS011;34804;49.214;12.276;2024-02-26T10:19:48;15.93;;;6.55;;
48993;SDS011;34804;49.214;12.276;2024-02-26T10:22:18;12.27;;;6.05;;
48993;SDS011;34804;49.214;12.276;2024-02-26T10:24:46;11.10;;;6.03;;
48993;SDS011;34804;49.214;12.276;2024-02-26T10:27:13;11.95;;;6.50;;
48993;SDS011;34804;49.214;12.276;2024-02-26T10:29:41;12.02;;;6.00;;
48993;SDS011;34804;49.214;12.276;2024-02-26T10:32:09;11.65;;;6.53;;
48993;SDS011;34804;49.214;12.276;2024-02-26T10:34:37;14.13;;;7.30;;
48993;SDS011;34804;49.214;12.276;2024-02-26T10:37:07;13.77;;;7.05;;
48993;SDS011;34804;49.214;12.276;2024-02-26T10:39:36;13.38;;;8.02;;
48993;SDS011;34804;49.214;12.276;2024-02-26T10:42:04;14.40;;;6.78;;
48993;SDS011;34804;49.214;12.276;2024-02-26T10:44:36;11.02;;;6.22;;
48993;SDS011;34804;49.214;12.276;2024-02-26T10:47:03;11.80;;;6.07;;
48993;SDS011;34804;49.214;12.276;2024-02-26T10:49:30;10.93;;;6.20;;
48993;SDS011;34804;49.214;12.276;2024-02-26T10:51:57;10.80;;;6.22;;
48993;SDS011;34804;49.214;12.276;2024-02-26T10:54:28;13.05;;;6.25;;
48993;SDS011;34804;49.214;12.276;2024-02-26T10:56:56;10.38;;;5.70;;
48993;SDS011;34804;49.214;12.276;2024-02-26T10:59:25;9.10;;;5.13;;
48993;SDS011;34804;49.214;12.276;2024-02-26T11:01:52;10.95;;;5.40;;
48993;SDS011;34804;49.214;12.276;2024-02-26T11:04:21;8.77;;;5.20;;
48993;SDS011;34804;49.214;12.276;2024-02-26T11:06:49;13.73;;;5.80;;
48993;SDS011;34804;49.214;12.276;2024-02-26T11:09:17;10.13;;;5.75;;
48993;SDS011;34804;49.214;12.276;2024-02-26T11:11:45;11.07;;;5.80;;
48993;SDS011;34804;49.214;12.276;2024-02-26T11:14:14;10.65;;;5.72;;
48993;SDS011;34804;49.214;12.276;2024-02-26T11:16:42;12.18;;;6.45;;
48993;SDS011;34804;49.214;12.276;2024-02-26T11:19:11;10.32;;;5.72;;
48993;SDS011;34804;49.214;12.276;2024-02-26T11:21:40;11.57;;;5.82;;
48993;SDS011;34804;49.214;12.276;2024-02-26T11:24:10;9.68;;;5.47;;
48993;SDS011;34804;49.214;12.276;2024-02-26T11:27:01;8.87;;;5.23;;
48993;SDS011;34804;49.214;12.276;2024-02-26T11:29:37;9.45;;;5.47;;
48993;SDS011;34804;49.214;12.276;2024-02-26T11:32:08;11.00;;;5.65;;
48993;SDS011;34804;49.214;12.276;2024-02-26T11:34:35;9.57;;;5.30;;
48993;SDS011;34804;49.214;12.276;2024-02-26T11:37:14;10.30;;;5.72;;
48993;SDS011;34804;49.214;12.276;2024-02-26T11:39:41;11.43;;;5.65;;
48993;SDS011;34804;49.214;12.276;2024-02-26T11:42:14;7.72;;;4.45;;
48993;SDS011;34804;49.214;12.276;2024-02-26T11:44:42;11.00;;;5.95;;
48993;SDS011;34804;49.214;12.276;2024-02-26T11:47:12;11.68;;;6.28;;
48993;SDS011;34804;49.214;12.276;2024-02-26T11:49:40;8.55;;;4.68;;
48993;SDS011;34804;49.214;12.276;2024-02-26T11:52:08;8.00;;;4.25;;
48993;SDS011;34804;49.214;12.276;2024-02-26T11:54:52;10.05;;;5.10;;
48993;SDS011;34804;49.214;12.276;2024-02-26T12:02:51;8.30;;;4.75;;
48993;SDS011;34804;49.214;12.276;2024-02-26T12:05:30;10.20;;;5.88;;
48993;SDS011;34804;49.214;12.276;2024-02-26T12:07:59;13.00;;;5.30;;
48993;SDS011;34804;49.214;12.276;2024-02-26T12:10:38;12.02;;;6.22;;
48993;SDS011;34804;49.214;12.276;2024-02-26T12:13:16;9.48;;;5.80;;
48993;SDS011;34804;49.214;12.276;2024-02-26T12:16:06;13.10;;;5.68;;
48993;SDS011;34804;49.214;12.276;2024-02-26T12:18:32;10.68;;;5.60;;
48993;SDS011;34804;49.214;12.276;2024-02-26T12:21:02;9.98;;;5.47;;
48993;SDS011;34804;49.214;12.276;2024-02-26T12:23:30;10.35;;;6.18;;
48993;SDS011;34804;49.214;12.276;2024-02-26T12:25:59;11.20;;;5.30;;
48993;SDS011;34804;49.214;12.276;2024-02-26T12:28:28;10.00;;;5.80;;
48993;SDS011;34804;49.214;12.276;2024-02-26T12:30:56;15.52;;;6.45;;
48993;SDS011;34804;49.214;12.276;2024-02-26T12:33:26;13.50;;;6.68;;
48993;SDS011;34804;49.214;12.276;2024-02-26T12:35:55;13.18;;;6.03;;
48993;SDS011;34804;49.214;12.276;2024-02-26T12:38:22;13.70;;;6.43;;
48993;SDS011;34804;49.214;12.276;2024-02-26T12:40:49;12.82;;;6.03;;
48993;SDS011;34804;49.214;12.276;2024-02-26T12:43:16;11.10;;;6.75;;
48993;SDS011;34804;49.214;12.276;2024-02-26T12:45:43;11.13;;;5.88;;
48993;SDS011;34804;49.214;12.276;2024-02-26T12:48:14;9.48;;;5.68;;
48993;SDS011;34804;49.214;12.276;2024-02-26T12:50:45;10.82;;;6.05;;
48993;SDS011;34804;49.214;12.276;2024-02-26T12:53:15;10.27;;;5.47;;
48993;SDS011;34804;49.214;12.276;2024-02-26T12:55:42;10.57;;;5.75;;
48993;SDS011;34804;49.214;12.276;2024-02-26T12:58:10;11.15;;;6.25;;
48993;SDS011;34804;49.214;12.276;2024-02-26T13:00:38;16.30;;;6.72;;
48993;SDS011;34804;49.214;12.276;2024-02-26T13:03:05;12.73;;;6.55;;
48993;SDS011;34804;49.214;12.276;2024-02-26T13:05:32;10.88;;;6.57;;
48993;SDS011;34804;49.214;12.276;2024-02-26T13:08:00;10.80;;;5.97;;
48993;SDS011;34804;49.214;12.276;2024-02-26T13:10:29;11.68;;;5.65;;
48993;SDS011;34804;49.214;12.276;2024-02-26T13:12:57;10.32;;;5.63;;
48993;SDS011;34804;49.214;12.276;2024-02-26T13:15:27;11.20;;;5.45;;
48993;SDS011;34804;49.214;12.276;2024-02-26T13:17:55;12.48;;;6.22;;
48993;SDS011;34804;49.214;12.276;2024-02-26T13:20:29;10.73;;;6.00;;
48993;SDS011;34804;49.214;12.276;2024-02-26T13:23:03;11.32;;;6.07;;
48993;SDS011;34804;49.214;12.276;2024-02-26T13:25:32;10.45;;;5.97;;
48993;SDS011;34804;49.214;12.276;2024-02-26T13:28:14;9.73;;;5.80;;
48993;SDS011;34804;49.214;12.276;2024-02-26T13:30:55;9.13;;;5.22;;
48993;SDS011;34804;49.214;12.276;2024-02-26T13:33:24;9.30;;;5.68;;
48993;SDS011;34804;49.214;12.276;2024-02-26T13:35:52;11.77;;;6.07;;
48993;SDS011;34804;49.214;12.276;2024-02-26T13:38:19;8.70;;;5.55;;
48993;SDS011;34804;49.214;12.276;2024-02-26T13:40:46;8.68;;;5.43;;
48993;SDS011;34804;49.214;12.276;2024-02-26T13:43:13;8.98;;;5.60;;
48993;SDS011;34804;49.214;12.276;2024-02-26T13:45:40;11.18;;;6.53;;
48993;SDS011;34804;49.214;12.276;2024-02-26T13:48:08;10.05;;;5.68;;
48993;SDS011;34804;49.214;12.276;2024-02-26T13:50:38;8.57;;;5.22;;
48993;SDS011;34804;49.214;12.276;2024-02-26T13:53:05;8.40;;;5.40;;
48993;SDS011;34804;49.214;12.276;2024-02-26T13:55:32;8.65;;;5.15;;
48993;SDS011;34804;49.214;12.276;2024-02-26T13:57:59;9.32;;;5.82;;
48993;SDS011;34804;49.214;12.276;2024-02-26T14:00:30;9.30;;;5.18;;
48993;SDS011;34804;49.214;12.276;2024-02-26T14:03:00;9.18;;;5.38;;
48993;SDS011;34804;49.214;12.276;2024-02-26T14:05:28;9.07;;;5.30;;
48993;SDS011;34804;49.214;12.276;2024-02-26T14:07:56;9.45;;;5.80;;
48993;SDS011;34804;49.214;12.276;2024-02-26T14:10:23;10.85;;;6.18;;
48993;SDS011;34804;49.214;12.276;2024-02-26T14:12:50;11.98;;;5.47;;
48993;SDS011;34804;49.214;12.276;2024-02-26T14:15:17;8.40;;;5.47;;
48993;SDS011;34804;49.214;12.276;2024-02-26T14:17:44;10.38;;;5.85;;
48993;SDS011;34804;49.214;12.276;2024-02-26T14:20:12;11.38;;;6.07;;
48993;SDS011;34804;49.214;12.276;2024-02-26T14:22:39;9.43;;;5.95;;
48993;SDS011;34804;49.214;12.276;2024-02-26T14:25:06;9.52;;;5.85;;
48993;SDS011;34804;49.214;12.276;2024-02-26T14:27:35;9.18;;;5.47;;
48993;SDS011;34804;49.214;12.276;2024-02-26T14:30:03;11.43;;;6.00;;
48993;SDS011;34804;49.214;12.276;2024-02-26T14:32:31;10.43;;;6.28;;
48993;SDS011;34804;49.214;12.276;2024-02-26T14:35:09;8.57;;;5.45;;
48993;SDS011;34804;49.214;12.276;2024-02-26T14:37:43;8.95;;;5.82;;